Terminal Aerodrome Forecast
Issued by NWS Sioux Falls, SD

Home | Current Version | Previous Version | Graphics & Text | Print | Product List | Glossary On
Versions: 1 2 3 4 5 6 7 8 9 10 11 12 13 14 15 16 17 18
000
FTUS43 KFSD 240535
TAFSUX
TAF
KSUX 240535Z 2406/2506 04004KT 4SM BR OVC004
     FM241200 08007KT 1SM -SN BKN005
     FM241400 07007KT 3/4SM -SN OVC003
     FM242200 01005KT 1 1/2SM -SN OVC007
     FM250000 31007KT P6SM BKN008
     FM250400 29011KT P6SM BKN060=

USA.gov is the U.S. government's official web portal to all federal, state and local government web resources and services.